Time;durP1;ratioP1;P1;durP2;ratioP2;P2;SDS_P1;SDS_P2;PMS_P1;PMS_P2;Temp;Humidity;BMP_temperature;BMP_pressure;BME280_temperature;BME280_humidity;BME280_pressure;Samples;Min_cycle;Max_cycle;Signal;HPM_P1;HPM_P2
2022/11/25 00:02:30;;;;;;;13.32;3.88;;;;;;;3.69;81.04;100544.53;6185695;23;20078;-75
2022/11/25 00:05:34;;;;;;;13.82;3.03;;;;;;;3.64;81.06;100536.06;6185653;23;20075;-75
2022/11/25 00:08:38;;;;;;;19.25;3.33;;;;;;;3.47;81.78;100539.00;6185725;23;20024;-74
2022/11/25 00:11:42;;;;;;;8.50;3.05;;;;;;;3.60;81.20;100535.25;6183567;23;20028;-75
2022/11/25 00:14:45;;;;;;;9.27;2.67;;;;;;;3.76;80.89;100525.41;6185133;23;20410;-75
2022/11/25 00:17:48;;;;;;;9.20;2.63;;;;;;;3.56;81.61;100537.97;6185357;23;20055;-73
2022/11/25 00:20:52;;;;;;;;;;;;;;;3.53;81.08;100531.13;6185670;23;20024;-74
2022/11/25 00:23:59;;;;;;;12.98;3.35;;;;;;;3.54;80.71;100524.22;6185682;23;19966;-74
2022/11/25 00:27:03;;;;;;;8.82;2.75;;;;;;;3.65;80.05;100527.41;6185245;23;20410;-74
2022/11/25 00:30:07;;;;;;;12.30;2.67;;;;;;;3.61;80.57;100525.78;6185254;23;20071;-73
2022/11/25 00:33:11;;;;;;;9.13;4.13;;;;;;;3.60;80.31;100534.41;6185399;23;20024;-74
2022/11/25 00:36:28;;;;;;;9.02;2.78;;;;;;;3.38;81.00;100534.03;6185228;23;20023;-74
2022/11/25 00:39:32;;;;;;;7.68;2.60;;;;;;;3.32;80.95;100529.88;6185083;23;20043;-74
2022/11/25 00:45:59;;;;;;;9.70;3.63;;;;;;;3.62;80.05;100523.16;6164455;23;20075;-74
2022/11/25 00:49:02;;;;;;;;;;;;;;;3.44;80.19;100529.59;6183572;23;20074;-75
2022/11/25 00:52:06;;;;;;;11.82;3.50;;;;;;;3.32;81.21;100519.56;6182909;23;19943;-74
2022/11/25 00:55:10;;;;;;;9.30;3.15;;;;;;;3.31;81.36;100515.25;6185270;23;20090;-74
2022/11/25 00:58:13;;;;;;;8.95;3.40;;;;;;;3.39;80.40;100531.44;6166990;23;20028;-75
2022/11/25 01:01:16;;;;;;;;;;;;;;;3.56;79.79;100527.63;6167567;23;20026;-75
2022/11/25 01:04:20;;;;;;;6.80;2.85;;;;;;;3.64;79.55;100520.53;6185226;23;19971;-75
2022/11/25 01:07:23;;;;;;;;;;;;;;;3.31;80.71;100517.81;6185751;23;20028;-75
2022/11/25 01:15:36;;;;;;;9.93;2.50;;;;;;;3.32;80.93;100529.00;6185165;23;20110;-74
2022/11/25 01:18:40;;;;;;;;;;;;;;;3.49;80.70;100532.94;6185436;23;20457;-75
2022/11/25 01:21:45;;;;;;;8.40;2.90;;;;;;;3.50;80.94;100529.44;6184839;23;20119;-75
2022/11/25 01:24:49;;;;;;;8.73;3.53;;;;;;;3.46;80.67;100534.72;6164986;23;20023;-74
2022/11/25 01:27:56;;;;;;;6.97;2.55;;;;;;;3.53;80.07;100536.28;6165537;23;20079;-74
2022/11/25 01:31:10;;;;;;;12.13;2.88;;;;;;;3.50;80.12;100536.34;6184191;23;20024;-74
2022/11/25 01:34:21;;;;;;;7.13;3.10;;;;;;;3.53;80.21;100527.69;6166029;23;20075;-74
2022/11/25 01:37:25;;;;;;;8.95;2.72;;;;;;;3.55;80.70;100528.50;6165493;23;20024;-75
2022/11/25 01:40:28;;;;;;;19.20;3.30;;;;;;;3.33;81.02;100526.41;6166516;23;20024;-74
2022/11/25 01:43:32;;;;;;;17.85;4.03;;;;;;;3.50;81.07;100524.28;6166537;23;20039;-74
2022/11/25 01:46:54;;;;;;;14.13;4.03;;;;;;;3.58;81.09;100521.53;6184756;23;20130;-74
2022/11/25 01:50:03;;;;;;;14.75;4.03;;;;;;;3.55;81.21;100520.75;6184911;23;20075;-74
2022/11/25 01:53:10;;;;;;;8.93;3.42;;;;;;;3.50;81.04;100516.53;6166077;23;20513;-74
2022/11/25 01:56:14;;;;;;;11.02;3.10;;;;;;;3.42;81.36;100510.69;6166185;23;20028;-74
2022/11/25 01:59:19;;;;;;;12.60;3.72;;;;;;;3.43;81.90;100514.97;6166227;23;20399;-74
2022/11/25 02:02:23;;;;;;;10.77;3.83;;;;;;;3.46;82.07;100512.31;6183247;23;20054;-73
2022/11/25 02:05:41;;;;;;;14.07;3.35;;;;;;;3.37;82.66;100512.53;6166013;23;20473;-74
2022/11/25 02:08:49;;;;;;;12.02;3.38;;;;;;;3.40;82.99;100514.19;6184239;23;20024;-74
2022/11/25 02:11:55;;;;;;;26.65;3.60;;;;;;;3.43;82.76;100519.28;6166300;23;20350;-73
2022/11/25 02:14:59;;;;;;;11.63;3.53;;;;;;;3.42;82.95;100505.53;6166293;23;20362;-74
2022/11/25 02:18:03;;;;;;;24.67;4.00;;;;;;;3.42;83.15;100502.94;6184490;23;20358;-74
2022/11/25 02:21:07;;;;;;;17.55;4.85;;;;;;;3.55;83.68;100495.75;6184296;23;20417;-74
2022/11/25 02:24:34;;;;;;;26.42;4.63;;;;;;;3.47;83.50;100501.09;6166520;23;20087;-74
2022/11/25 02:27:38;;;;;;;27.33;5.03;;;;;;;3.49;83.46;100501.91;6165268;23;20474;-74
2022/11/25 02:30:43;;;;;;;29.90;5.07;;;;;;;3.42;84.16;100504.69;6184310;23;20347;-74
2022/11/25 02:33:46;;;;;;;15.52;4.35;;;;;;;3.28;84.89;100497.22;6183580;23;20362;-74
2022/11/25 02:36:50;;;;;;;;;;;;;;;3.30;85.25;100498.03;6147666;23;20706;-74
2022/11/25 02:39:55;;;;;;;17.58;5.03;;;;;;;3.55;84.07;100503.50;6149470;23;19995;-74
2022/11/25 02:42:59;;;;;;;10.40;4.82;;;;;;;3.73;83.06;100499.59;6165999;23;20024;-74
2022/11/25 02:46:06;;;;;;;19.52;5.35;;;;;;;3.63;83.73;100488.63;6184485;23;20106;-74
2022/11/25 02:49:10;;;;;;;16.33;6.00;;;;;;;3.75;82.84;100487.50;6166031;23;20070;-74
2022/11/25 02:52:13;;;;;;;19.90;5.35;;;;;;;3.56;83.19;100478.50;6166150;23;20075;-74
2022/11/25 02:58:55;;;;;;;16.48;5.63;;;;;;;3.68;83.38;100480.78;6124551;23;20458;-80
2022/11/25 03:02:02;;;;;;;16.48;5.97;;;;;;;3.76;83.04;100486.59;6121784;23;20037;-79
2022/11/25 03:05:05;;;;;;;17.65;8.00;;;;;;;3.69;83.50;100485.91;6123493;23;20028;-80
2022/11/25 03:08:09;;;;;;;15.90;5.70;;;;;;;3.62;83.32;100483.53;6124699;23;20025;-79
2022/11/25 03:11:13;;;;;;;11.35;5.28;;;;;;;3.50;84.46;100482.91;6124618;23;20040;-79
2022/11/25 03:14:16;;;;;;;13.65;4.25;;;;;;;3.71;83.56;100480.72;6124380;23;20088;-79
2022/11/25 03:17:20;;;;;;;14.20;5.65;;;;;;;3.70;82.97;100471.22;6124896;23;20491;-78
2022/11/25 03:20:24;;;;;;;10.05;5.55;;;;;;;3.81;82.49;100476.16;6125513;23;20052;-79
2022/11/25 03:23:27;;;;;;;14.48;5.00;;;;;;;3.82;81.89;100470.94;6125960;23;20155;-78
2022/11/25 03:26:32;;;;;;;11.52;4.55;;;;;;;3.72;81.77;100466.88;6125842;23;20033;-78
2022/11/25 03:29:35;;;;;;;15.13;4.72;;;;;;;3.72;82.12;100462.56;6124483;23;20025;-78
2022/11/25 03:32:38;;;;;;;;;;;;;;;3.74;82.53;100465.13;6125698;23;20029;-79
2022/11/25 03:35:42;;;;;;;12.85;4.35;;;;;;;3.69;82.25;100466.97;6124104;23;19921;-78
2022/11/25 03:38:45;;;;;;;;;;;;;;;3.63;82.72;100472.28;6125958;23;20029;-77
2022/11/25 03:41:49;;;;;;;10.52;4.60;;;;;;;3.64;82.21;100479.16;6142250;23;20047;-77
2022/11/25 03:44:54;;;;;;;14.25;5.38;;;;;;;3.82;81.55;100478.69;6124118;23;20045;-78
2022/11/25 03:49:01;;;;;;;;;;;;;;;;;;;;;
2022/11/25 03:52:55;;;;;;;11.15;4.63;;;;;;;3.53;82.80;100491.50;6141049;23;20090;-79
2022/11/25 03:57:01;;;;;;;10.27;4.50;;;;;;;3.73;82.46;100482.38;6067777;23;20096;-79
2022/11/25 04:00:06;;;;;;;11.98;4.38;;;;;;;3.82;82.39;100483.88;6125814;23;20518;-79
2022/11/25 04:03:21;;;;;;;11.60;4.30;;;;;;;3.88;81.72;100480.28;6126636;23;20025;-80
2022/11/25 04:06:25;;;;;;;11.63;4.97;;;;;;;3.79;81.52;100488.28;6125237;23;20028;-79
2022/11/25 04:09:31;;;;;;;12.60;4.40;;;;;;;3.74;81.77;100485.81;6126377;23;20072;-79
2022/11/25 04:12:45;;;;;;;10.50;4.13;;;;;;;3.85;81.77;100494.13;6125262;23;20515;-79
2022/11/25 04:15:51;;;;;;;9.70;4.25;;;;;;;3.79;81.94;100486.53;6108377;23;20080;-80
2022/11/25 04:18:55;;;;;;;13.48;4.97;;;;;;;3.85;82.09;100483.78;6108432;23;20057;-79
2022/11/25 04:22:00;;;;;;;7.85;3.17;;;;;;;3.77;82.14;100475.38;6125394;23;20061;-78
2022/11/25 04:25:06;;;;;;;8.43;4.20;;;;;;;3.86;82.39;100475.16;6108353;23;20049;-79
2022/11/25 04:28:10;;;;;;;8.82;3.58;;;;;;;3.65;83.10;100475.69;6107737;23;20536;-78
2022/11/25 04:31:13;;;;;;;6.95;3.70;;;;;;;3.93;82.71;100476.69;6124847;23;20403;-78
2022/11/25 04:34:19;;;;;;;8.60;3.67;;;;;;;3.90;82.17;100478.50;6108319;23;20253;-79
2022/11/25 04:37:25;;;;;;;7.50;3.35;;;;;;;3.83;82.37;100480.41;6124725;23;20355;-78
2022/11/25 04:40:31;;;;;;;5.32;3.20;;;;;;;3.81;82.37;100473.56;6108260;23;20088;-79
2022/11/25 04:43:47;;;;;;;7.45;3.40;;;;;;;3.90;81.54;100476.78;6125637;23;20069;-79
2022/11/25 04:46:52;;;;;;;6.38;3.05;;;;;;;3.86;82.32;100467.41;6107915;23;20379;-80
2022/11/25 04:49:58;;;;;;;10.60;3.50;;;;;;;3.87;82.62;100470.84;6126197;23;20076;-85
2022/11/25 04:53:02;;;;;;;7.68;3.45;;;;;;;3.94;83.05;100470.63;6108424;23;20033;-81
2022/11/25 04:56:06;;;;;;;5.93;3.00;;;;;;;3.97;82.50;100461.94;6108043;23;20407;-81
2022/11/25 05:02:39;;;;;;;10.57;4.45;;;;;;;3.97;83.15;100462.78;6119828;23;20578;-80
2022/11/25 05:05:48;;;;;;;7.35;4.53;;;;;;;3.96;83.32;100461.09;6103202;23;20478;-81
2022/11/25 05:08:52;;;;;;;15.48;8.27;;;;;;;4.10;82.69;100475.41;6104012;23;20037;-82
2022/11/25 05:11:56;;;;;;;12.02;5.70;;;;;;;4.05;82.63;100485.00;6121266;23;20029;-85
2022/11/25 05:15:00;;;;;;;7.80;4.07;;;;;;;4.02;83.02;100500.63;6122283;23;20044;-82
2022/11/25 05:18:04;;;;;;;8.68;3.35;;;;;;;4.19;82.75;100482.94;6103785;23;20076;-84
2022/11/25 05:21:20;;;;;;;7.85;4.13;;;;;;;4.17;82.77;100497.63;6121885;23;20084;-82
2022/11/25 05:24:31;;;;;;;7.47;3.95;;;;;;;4.05;83.54;100498.81;6102840;23;20097;-85
2022/11/25 05:28:54;;;;;;;7.32;3.17;;;;;;;4.16;83.92;100494.19;6121973;23;20160;-88
2022/11/25 05:36:47;;;;;;;6.43;3.50;;;;;;;4.25;83.79;100475.00;6118307;23;20531;-81
2022/11/25 05:39:51;;;;;;;12.25;3.67;;;;;;;4.22;83.83;100471.66;6100200;23;20029;-81
2022/11/25 05:43:11;;;;;;;9.88;4.57;;;;;;;4.23;84.03;100469.00;6101025;23;20029;-79
2022/11/25 05:46:17;;;;;;;7.95;2.97;;;;;;;4.20;84.05;100474.25;6101687;23;20151;-83
2022/11/25 05:49:29;;;;;;;7.35;4.43;;;;;;;4.32;83.86;100483.44;6101783;23;20036;-89
2022/11/25 05:52:34;;;;;;;13.00;5.43;;;;;;;4.15;85.01;100486.50;6117710;23;20133;-84
2022/11/25 05:55:42;;;;;;;6.93;3.53;;;;;;;4.03;85.62;100494.56;6117647;23;20104;-82
2022/11/25 05:58:54;;;;;;;12.15;4.97;;;;;;;4.16;85.60;100490.78;6115761;23;20081;-82
2022/11/25 06:02:00;;;;;;;8.57;4.05;;;;;;;4.06;85.61;100491.91;6118245;23;20100;-83
2022/11/25 06:05:04;;;;;;;8.60;4.47;;;;;;;4.32;85.15;100488.63;6102098;23;20060;-83
2022/11/25 06:08:07;;;;;;;11.07;5.00;;;;;;;4.26;85.61;100484.44;6120555;23;20053;-83
2022/11/25 06:11:15;;;;;;;11.40;5.13;;;;;;;4.19;85.48;100495.88;6120553;23;20052;-83
2022/11/25 06:14:18;;;;;;;10.05;5.15;;;;;;;4.36;85.17;100498.84;6101059;23;20116;-82
2022/11/25 06:17:23;;;;;;;8.15;4.28;;;;;;;4.40;85.22;100503.06;6118661;23;20028;-83
2022/11/25 06:20:34;;;;;;;9.85;4.20;;;;;;;4.36;85.03;100501.44;6118941;23;20033;-82
2022/11/25 06:23:39;;;;;;;11.70;4.53;;;;;;;4.56;84.35;100507.78;6101813;23;20026;-82
2022/11/25 06:26:45;;;;;;;9.18;3.88;;;;;;;4.42;85.04;100505.59;6118637;23;20028;-81
2022/11/25 06:29:48;;;;;;;;;;;;;;;4.54;84.38;100514.78;6119992;23;20101;-81
2022/11/25 06:32:53;;;;;;;10.57;5.07;;;;;;;4.53;84.72;100526.88;6119382;23;20342;-82
2022/11/25 06:36:02;;;;;;;9.48;4.32;;;;;;;4.55;84.87;100522.50;6102578;23;20077;-82
2022/11/25 06:39:08;;;;;;;11.10;4.70;;;;;;;4.71;84.65;100525.50;6120416;23;20352;-82
2022/11/25 06:42:11;;;;;;;11.27;4.80;;;;;;;4.73;84.27;100535.84;6120170;23;20032;-83
2022/11/25 06:45:15;;;;;;;8.40;4.20;;;;;;;4.58;84.88;100529.34;6120093;23;20037;-84
2022/11/25 06:48:18;;;;;;;7.80;3.53;;;;;;;4.68;85.34;100533.34;6119544;23;20028;-83
2022/11/25 06:51:23;;;;;;;8.40;3.00;;;;;;;4.62;84.98;100538.72;6119711;23;20028;-83
2022/11/25 06:54:26;;;;;;;9.57;3.50;;;;;;;4.74;85.23;100538.38;6118349;23;20028;-84
2022/11/25 06:57:29;;;;;;;;;;;;;;;4.81;85.14;100544.22;6102317;23;20044;-82
2022/11/25 07:00:32;;;;;;;8.65;3.35;;;;;;;4.79;84.74;100539.09;6120270;23;19991;-82
2022/11/25 07:03:40;;;;;;;;;;;;;;;4.83;84.89;100543.28;6119775;23;20049;-82
2022/11/25 07:06:49;;;;;;;6.97;3.85;;;;;;;4.79;84.67;100544.28;6119835;23;20210;-84
2022/11/25 07:09:53;;;;;;;8.43;2.95;;;;;;;4.81;85.21;100545.06;6117518;23;20093;-83
2022/11/25 07:23:22;;;;;;;7.32;3.10;;;;;;;4.56;87.09;100554.41;5125675;27;20372;-73
2022/11/25 07:26:27;;;;;;;;;;;;;;;4.56;87.00;100559.59;5125791;27;20166;-74
2022/11/25 07:29:31;;;;;;;8.20;2.97;;;;;;;4.45;87.32;100562.47;5123552;27;19917;-74
2022/11/25 07:32:35;;;;;;;7.07;3.03;;;;;;;4.44;88.03;100568.56;5123637;27;20463;-75
2022/11/25 07:35:38;;;;;;;7.97;2.88;;;;;;;4.51;87.74;100571.81;5122814;27;20529;-74
2022/11/25 07:38:42;;;;;;;4.38;2.60;;;;;;;4.72;86.75;100576.41;5122929;27;20050;-74
2022/11/25 07:42:39;;;;;;;5.07;2.55;;;;;;;4.81;86.48;100578.75;5123122;28;20046;-75
2022/11/25 07:45:45;;;;;;;5.15;2.50;;;;;;;4.85;86.15;100580.38;5125106;27;20091;-74
2022/11/25 07:48:48;;;;;;;5.22;2.90;;;;;;;4.97;86.13;100586.94;5119298;27;20050;-74
2022/11/25 07:51:56;;;;;;;5.88;3.17;;;;;;;4.92;86.43;100595.75;5140473;27;20080;-74
2022/11/25 07:55:00;;;;;;;4.63;2.53;;;;;;;4.88;86.85;100595.84;5122918;27;20050;-75
2022/11/25 07:58:03;;;;;;;6.20;3.03;;;;;;;4.99;86.51;100589.50;5124992;27;20408;-74
2022/11/25 08:01:09;;;;;;;6.03;3.25;;;;;;;4.87;87.18;100594.13;5118434;27;20038;-75
2022/11/25 08:04:13;;;;;;;5.85;2.70;;;;;;;4.99;86.60;100599.88;5116147;27;20108;-75
2022/11/25 08:07:17;;;;;;;6.75;2.83;;;;;;;4.97;86.49;100589.53;5125349;27;20061;-75
2022/11/25 08:10:20;;;;;;;6.90;3.05;;;;;;;5.05;86.48;100599.72;5119654;27;20143;-75
2022/11/25 08:13:24;;;;;;;5.15;2.20;;;;;;;5.11;86.50;100599.53;5116265;27;20035;-75
2022/11/25 08:16:29;;;;;;;;;;;;;;;5.14;86.00;100599.44;5110099;27;20558;-75
2022/11/25 08:19:35;;;;;;;6.22;2.78;;;;;;;4.93;86.78;100611.25;5105759;28;19919;-74
2022/11/25 08:22:39;;;;;;;4.80;2.80;;;;;;;4.88;87.84;100606.22;5100629;28;20129;-76
2022/11/25 08:25:46;;;;;;;4.63;3.17;;;;;;;5.00;87.37;100601.56;5103666;28;20441;-76
2022/11/25 08:28:49;;;;;;;8.48;6.10;;;;;;;5.03;86.56;100606.66;5108336;28;20126;-75
2022/11/25 08:31:52;;;;;;;7.50;5.05;;;;;;;5.09;86.80;100616.84;5095809;28;20465;-75
2022/11/25 08:34:59;;;;;;;7.15;4.75;;;;;;;5.08;87.13;100621.19;5092338;28;20062;-75
2022/11/25 08:38:15;;;;;;;12.27;10.00;;;;;;;5.18;87.21;100623.53;5111679;28;20162;-75
2022/11/25 08:41:22;;;;;;;10.90;7.68;;;;;;;5.32;86.73;100624.81;5108401;28;20438;-76
2022/11/25 08:44:27;;;;;;;8.15;6.03;;;;;;;5.09;87.58;100629.81;5091839;28;20046;-76
2022/11/25 08:47:30;;;;;;;11.70;7.85;;;;;;;5.22;88.22;100632.91;5101660;28;20062;-74
2022/11/25 08:50:34;;;;;;;20.27;14.27;;;;;;;5.25;87.79;100630.22;5111096;28;20092;-75
2022/11/25 08:53:38;;;;;;;24.25;16.55;;;;;;;5.33;87.22;100631.72;5110849;28;20053;-76
2022/11/25 08:56:42;;;;;;;22.33;14.45;;;;;;;5.38;87.35;100633.31;5110978;28;20135;-77
2022/11/25 08:59:46;;;;;;;13.70;8.90;;;;;;;5.42;87.27;100635.78;5105416;28;20038;-76
2022/11/25 09:02:49;;;;;;;;;;;;;;;5.43;86.89;100640.09;5111265;28;20511;-75
2022/11/25 09:05:54;;;;;;;7.68;5.70;;;;;;;5.39;87.18;100642.78;5101814;28;19992;-75
2022/11/25 09:09:00;;;;;;;7.57;4.93;;;;;;;5.50;86.96;100643.34;5107102;28;20042;-75
2022/11/25 09:12:04;;;;;;;6.18;3.67;;;;;;;5.67;86.32;100641.09;5108886;28;20070;-75
2022/11/25 09:15:09;;;;;;;6.80;4.10;;;;;;;5.64;86.64;100642.94;5109864;28;20054;-76
2022/11/25 09:18:14;;;;;;;8.48;4.97;;;;;;;5.82;87.05;100650.16;5106166;28;20147;-77
2022/11/25 09:21:17;;;;;;;8.55;4.80;;;;;;;5.75;88.13;100654.69;5090783;28;20475;-75
2022/11/25 09:24:22;;;;;;;9.25;4.72;;;;;;;5.55;88.48;100668.25;5091616;28;20055;-76
2022/11/25 09:27:25;;;;;;;9.85;5.78;;;;;;;5.48;88.80;100663.28;5109700;28;20063;-77
2022/11/25 09:30:28;;;;;;;10.57;5.97;;;;;;;5.55;89.83;100669.97;5091061;28;20043;-76
2022/11/25 09:33:32;;;;;;;15.07;9.73;;;;;;;5.73;89.91;100661.66;5100772;28;20034;-77
2022/11/25 09:36:35;;;;;;;;;;;;;;;5.69;90.31;100674.78;5093237;28;20050;-77
2022/11/25 09:39:39;;;;;;;12.20;8.50;;;;;;;5.70;90.87;100690.28;5102082;28;19934;-76
2022/11/25 09:46:53;;;;;;;19.35;17.35;;;;;;;5.67;94.37;100703.34;5090818;28;20089;-79
2022/11/25 09:50:07;;;;;;;11.48;7.80;;;;;;;5.35;95.07;100699.91;5092383;28;20100;-78
2022/11/25 09:53:37;;;;;;;11.80;6.13;;;;;;;5.31;97.03;100695.72;5089811;28;20573;-76
2022/11/25 09:56:44;;;;;;;8.63;6.35;;;;;;;5.43;97.13;100697.13;5089624;28;20055;-77
2022/11/25 09:59:53;;;;;;;9.20;6.20;;;;;;;5.53;97.56;100708.09;5091235;28;20046;-77
2022/11/25 10:03:12;;;;;;;9.98;5.75;;;;;;;5.47;98.27;100700.50;5107751;28;20138;-78
2022/11/25 10:06:25;;;;;;;12.73;5.78;;;;;;;5.47;99.07;100703.09;5110077;28;20092;-78
2022/11/25 10:09:32;;;;;;;10.00;5.10;;;;;;;5.47;99.86;100703.09;5090718;28;20054;-78
2022/11/25 10:12:43;;;;;;;11.82;6.50;;;;;;;5.60;99.58;100707.03;5099166;28;20030;-77
2022/11/25 10:15:49;;;;;;;14.63;6.18;;;;;;;5.57;99.91;100710.53;5109228;28;20050;-78
2022/11/25 10:19:20;;;;;;;9.60;4.50;;;;;;;5.70;99.80;100711.03;5109227;28;20094;-77
2022/11/25 10:22:25;;;;;;;12.63;4.90;;;;;;;5.72;99.62;100706.66;5103744;28;20089;-78
2022/11/25 10:25:57;;;;;;;9.60;4.30;;;;;;;5.65;99.91;100699.09;5109210;28;20151;-77
2022/11/25 10:29:24;;;;;;;11.48;4.78;;;;;;;5.71;100.00;100701.50;5108467;28;20042;-77
2022/11/25 10:32:35;;;;;;;8.05;3.72;;;;;;;5.82;100.00;100696.88;5088455;28;20158;-78
2022/11/25 10:35:43;;;;;;;16.42;4.28;;;;;;;5.78;100.00;100696.13;5101716;28;20039;-75
2022/11/25 10:39:02;;;;;;;8.07;4.25;;;;;;;5.80;100.00;100685.66;5105349;28;20047;-77
2022/11/25 10:42:20;;;;;;;8.93;4.93;;;;;;;5.78;100.00;100700.47;5090003;28;20429;-77
2022/11/25 10:45:35;;;;;;;9.23;3.70;;;;;;;5.85;100.00;100695.94;5101383;28;20463;-78
2022/11/25 10:48:45;;;;;;;7.70;3.15;;;;;;;6.01;99.73;100692.84;5107233;28;20088;-76
2022/11/25 10:51:50;;;;;;;5.72;3.38;;;;;;;6.14;98.78;100700.25;5107687;28;20636;-79
2022/11/25 10:55:33;;;;;;;9.90;4.18;;;;;;;6.26;99.04;100698.13;5086633;28;20054;-78
2022/11/25 10:58:41;;;;;;;10.18;3.53;;;;;;;6.34;97.91;100687.47;5099793;28;20043;-78
2022/11/25 11:01:44;;;;;;;10.55;4.32;;;;;;;6.40;97.10;100694.25;5090732;28;20523;-78
2022/11/25 11:04:56;;;;;;;;;;;;;;;6.42;98.85;100708.03;5086771;28;20085;-79
2022/11/25 11:08:13;;;;;;;9.45;3.55;;;;;;;6.55;98.73;100698.94;5085451;28;19923;-77
2022/11/25 11:11:21;;;;;;;9.98;3.35;;;;;;;6.62;98.71;100708.22;5088858;28;20097;-78
2022/11/25 11:14:28;;;;;;;9.95;3.25;;;;;;;6.66;99.35;100707.22;5101570;28;20139;-78
2022/11/25 11:17:34;;;;;;;8.10;3.42;;;;;;;6.77;99.58;100711.22;5092016;28;20113;-78
2022/11/25 11:20:45;;;;;;;8.25;3.45;;;;;;;6.89;100.00;100715.97;5094382;28;20087;-78
2022/11/25 11:23:52;;;;;;;9.50;3.05;;;;;;;6.88;98.87;100715.13;5108780;28;20088;-78
2022/11/25 11:27:25;;;;;;;10.38;2.50;;;;;;;6.94;98.84;100725.34;5108076;28;20200;-77
2022/11/25 11:30:31;;;;;;;9.30;3.05;;;;;;;7.01;99.77;100720.78;5108446;28;20090;-77
2022/11/25 11:34:04;;;;;;;8.30;3.17;;;;;;;7.10;99.08;100717.00;5100727;28;20515;-82
2022/11/25 11:37:17;;;;;;;7.90;3.17;;;;;;;7.22;99.40;100727.00;5099480;28;20043;-81
2022/11/25 11:40:24;;;;;;;24.85;8.35;;;;;;;7.36;98.32;100721.28;5086772;28;20050;-81
2022/11/25 11:44:06;;;;;;;16.35;8.02;;;;;;;7.57;96.10;100732.69;5085664;28;20078;-84
2022/11/25 11:47:29;;;;;;;12.63;5.30;;;;;;;7.62;95.55;100731.59;5085835;28;20124;-82
2022/11/25 11:51:12;;;;;;;14.10;4.93;;;;;;;7.56;96.66;100729.25;5086720;28;20160;-85
2022/11/25 11:54:53;;;;;;;17.08;6.75;;;;;;;7.93;93.00;100736.50;5088125;28;20101;-83
2022/11/25 11:58:33;;;;;;;9.82;2.40;;;;;;;8.14;90.60;100742.66;5090045;28;20185;-83
2022/11/25 12:02:02;;;;;;;9.32;2.95;;;;;;;8.35;88.76;100740.13;5059406;28;20759;-83
2022/11/25 12:05:36;;;;;;;10.45;3.03;;;;;;;8.47;87.59;100752.69;5089487;28;20096;-87
2022/11/25 12:09:04;;;;;;;6.35;1.52;;;;;;;8.50;87.12;100757.78;5088573;28;20039;-85
2022/11/25 12:12:18;;;;;;;10.70;2.55;;;;;;;8.63;85.88;100759.91;5068714;28;20043;-83
2022/11/25 12:16:03;;;;;;;7.40;2.33;;;;;;;8.67;85.40;100767.53;5078971;28;20626;-84
2022/11/25 12:19:54;;;;;;;;;;;;;;;;;;;;;
2022/11/25 12:23:17;;;;;;;7.18;1.95;;;;;;;8.91;84.01;100760.47;5089745;28;20636;-85
2022/11/25 12:27:12;;;;;;;7.65;2.00;;;;;;;8.93;82.54;100766.44;5090998;28;20054;-86
2022/11/25 12:30:19;;;;;;;;;;;;;;;8.98;83.25;100774.94;5091374;28;20047;-79
2022/11/25 12:33:42;;;;;;;10.93;2.53;;;;;;;8.97;82.26;100781.09;5090566;28;19923;-77
2022/11/25 12:36:47;;;;;;;5.63;1.83;;;;;;;8.97;82.32;100781.09;5091254;28;20042;-78
2022/11/25 12:40:08;;;;;;;7.13;2.92;;;;;;;9.07;81.98;100782.38;5104891;28;20097;-80
2022/11/25 12:43:12;;;;;;;8.05;2.17;;;;;;;9.08;81.56;100778.03;5110730;28;20511;-78
2022/11/25 12:46:15;;;;;;;;;;;;;;;9.08;81.83;100780.63;5112056;28;20189;-78
2022/11/25 12:49:22;;;;;;;7.88;1.92;;;;;;;9.20;80.78;100784.50;5111903;28;20699;-78
2022/11/25 12:52:41;;;;;;;11.65;2.17;;;;;;;9.35;80.03;100790.78;5110666;28;20455;-80
2022/11/25 12:55:44;;;;;;;11.50;4.07;;;;;;;9.50;79.49;100797.97;5111276;28;20166;-80
2022/11/25 12:59:34;;;;;;;10.52;2.38;;;;;;;9.51;79.12;100795.31;5111241;28;20135;-81
2022/11/25 13:03:15;;;;;;;14.00;4.32;;;;;;;9.51;79.48;100794.47;5089727;28;20081;-81
2022/11/25 13:06:28;;;;;;;7.72;2.13;;;;;;;9.55;78.47;100803.84;5091834;28;20066;-78
2022/11/25 13:14:04;;;;;;;17.10;6.22;;;;;;;9.48;79.18;100818.09;5076060;27;20046;-79
2022/11/25 13:17:12;;;;;;;27.25;15.43;;;;;;;9.43;80.30;100823.50;5110854;28;20100;-78
2022/11/25 13:20:27;;;;;;;11.82;5.07;;;;;;;9.43;80.33;100828.72;5107723;28;20069;-82
2022/11/25 13:23:51;;;;;;;12.73;4.03;;;;;;;9.38;81.33;100822.84;5104282;28;20507;-82
2022/11/25 13:26:54;;;;;;;18.67;4.35;;;;;;;9.31;82.10;100835.28;5092686;28;20051;-79
2022/11/25 13:29:59;;;;;;;13.35;6.65;;;;;;;9.31;82.05;100845.72;5098668;28;20046;-81
2022/11/25 13:33:12;;;;;;;20.33;8.43;;;;;;;9.45;83.04;100845.16;5109122;28;20376;-79
2022/11/25 13:36:21;;;;;;;15.98;5.95;;;;;;;9.58;82.24;100847.25;5101691;28;20441;-79
2022/11/25 13:39:33;;;;;;;14.75;5.30;;;;;;;9.48;80.16;100844.19;5100911;28;20042;-77
2022/11/25 13:43:28;;;;;;;13.53;5.03;;;;;;;9.52;80.15;100845.75;5093523;28;20042;-80
2022/11/25 13:46:41;;;;;;;13.05;5.47;;;;;;;9.49;81.09;100840.66;5099040;28;20280;-77
2022/11/25 13:49:48;;;;;;;18.45;5.22;;;;;;;9.59;79.06;100849.78;5100628;28;20085;-76
2022/11/25 13:53:26;;;;;;;15.88;5.22;;;;;;;9.52;79.69;100859.66;5105127;28;20653;-77
2022/11/25 13:56:39;;;;;;;16.88;7.35;;;;;;;9.47;79.70;100853.75;5099556;28;20619;-76
2022/11/25 13:59:42;;;;;;;25.20;12.02;;;;;;;9.44;81.28;100861.72;5098812;28;20097;-76
2022/11/25 14:02:48;;;;;;;18.55;9.40;;;;;;;9.47;79.98;100860.75;5097548;28;20034;-75
2022/11/25 14:06:12;;;;;;;17.15;8.27;;;;;;;9.41;80.81;100864.50;5103168;28;20112;-75
2022/11/25 14:09:24;;;;;;;18.50;7.22;;;;;;;9.45;81.00;100868.66;5096577;28;20043;-75
2022/11/25 14:12:37;;;;;;;11.55;5.82;;;;;;;9.42;82.16;100871.41;5098543;28;20047;-75
2022/11/25 14:16:01;;;;;;;12.63;5.93;;;;;;;9.33;83.04;100871.78;5102963;28;20134;-77
2022/11/25 14:19:42;;;;;;;15.30;4.07;;;;;;;9.16;85.24;100875.09;5104400;28;20070;-82
2022/11/25 14:22:58;;;;;;;9.88;2.45;;;;;;;8.86;88.55;100879.75;5100638;28;20055;-80
2022/11/25 14:26:25;;;;;;;9.63;3.70;;;;;;;8.72;88.34;100884.69;5098002;28;20124;-80
2022/11/25 14:29:31;;;;;;;10.23;3.17;;;;;;;8.69;90.28;100887.41;5097048;28;20039;-81
2022/11/25 14:32:38;;;;;;;15.38;3.45;;;;;;;8.64;90.29;100900.59;5103366;28;20400;-80
2022/11/25 14:35:59;;;;;;;11.05;3.08;;;;;;;8.51;90.75;100902.81;5092259;28;20050;-79
2022/11/25 14:39:07;;;;;;;7.13;2.42;;;;;;;8.41;91.38;100898.84;5100497;28;20086;-77
2022/11/25 14:42:16;;;;;;;7.45;1.73;;;;;;;8.53;90.55;100902.78;5099221;28;20119;-77
2022/11/25 14:45:28;;;;;;;7.85;1.90;;;;;;;8.48;90.44;100913.34;5108739;28;20192;-77
2022/11/25 14:48:32;;;;;;;8.63;2.40;;;;;;;8.48;90.42;100915.13;5109006;28;20046;-77
2022/11/25 14:51:36;;;;;;;;;;;;;;;8.45;89.70;100910.00;5101913;28;20042;-78
2022/11/25 14:54:44;;;;;;;9.45;2.10;;;;;;;8.36;89.88;100914.66;5107278;28;20272;-78
2022/11/25 14:57:47;;;;;;;13.10;2.47;;;;;;;8.28;90.23;100921.88;5109678;28;20511;-79
2022/11/25 15:00:58;;;;;;;10.13;2.72;;;;;;;8.15;90.87;100931.03;5097194;28;20046;-76
2022/11/25 15:04:11;;;;;;;11.13;2.67;;;;;;;8.18;90.84;100927.50;5100706;28;20066;-77
2022/11/25 15:07:21;;;;;;;6.73;2.07;;;;;;;8.08;90.78;100933.03;5108313;28;20043;-77
2022/11/25 15:10:34;;;;;;;8.32;2.25;;;;;;;8.19;90.43;100932.63;5090994;28;20274;-78
2022/11/25 15:13:45;;;;;;;;;;;;;;;8.19;90.24;100937.00;5089638;28;20043;-78
2022/11/25 15:17:41;;;;;;;11.77;3.17;;;;;;;8.09;90.22;100950.34;5091545;28;20001;-78
2022/11/25 15:20:49;;;;;;;10.68;2.10;;;;;;;7.88;90.95;100961.50;5084931;28;20050;-78
2022/11/25 15:23:52;;;;;;;12.43;2.13;;;;;;;7.88;91.16;100958.88;5084851;28;20101;-77
2022/11/25 15:27:01;;;;;;;9.57;2.92;;;;;;;7.84;91.49;100968.56;5086988;28;20105;-78
2022/11/25 15:30:23;;;;;;;10.23;3.22;;;;;;;7.77;91.67;100985.28;5086632;28;20066;-76
2022/11/25 15:33:28;;;;;;;10.00;2.28;;;;;;;7.82;90.96;100979.94;5087699;28;20070;-77
2022/11/25 15:36:31;;;;;;;8.82;2.05;;;;;;;7.83;90.63;100986.84;5089783;28;20610;-78
2022/11/25 15:39:35;;;;;;;11.88;4.50;;;;;;;7.98;90.07;100983.72;5091082;28;20543;-79
2022/11/25 15:42:41;;;;;;;10.90;3.40;;;;;;;8.07;89.66;100993.84;5091202;28;20035;-78